Data for 03/08/2009

Time Sea-Level Adjusted Pressure Absolute Pressure Temperature Relative Humidity Dew Point   
(mb) (inHg) (mb) (inHg) (C) (F) (%) (C) (F)
00:05 1008 29.77 837 24.72 -2.1 28.3 43 -13 8.6
00:10 1008 29.77 837 24.72 -2.2 28 43 -13.2 8.3
00:15 1008 29.77 837 24.72 -2.3 27.8 44 -13.1 8.3
00:20 1008 29.77 837 24.72 -2 28.4 41 -13.4 7.8
00:25 1008 29.77 837 24.72 -1.8 28.7 40 -13.6 7.5
00:30 1008 29.77 837 24.72 -1.9 28.6 43 -12.9 8.8
00:35 1007 29.74 837 24.72 -2.1 28.3 42 -13.4 8
00:40 1007 29.74 837 24.72 -2.2 28 43 -13.1 8.4
00:45 1007 29.74 837 24.72 -2.3 27.8 42 -13.5 7.6
00:50 1007 29.74 837 24.72 -1.9 28.5 39 -14.1 6.7
00:55 1007 29.74 836 24.69 -1.7 28.9 39 -13.9 7
01:00 1007 29.74 836 24.69 -1.7 29 41 -13.5 7.8
01:05 1007 29.74 836 24.69 -2 28.4 43 -13 8.6
01:10 1007 29.74 836 24.69 -2.1 28.2 42 -13.3 8.1
01:15 1007 29.74 836 24.69 -2 28.3 41 -13.7 7.4
01:20 1007 29.74 836 24.69 -1.7 28.9 39 -13.9 7
01:25 1007 29.74 836 24.69 -1.5 29.3 40 -13.5 7.7
01:30 1007 29.74 836 24.69 -1.6 29.1 39 -13.9 7
01:35 1007 29.74 836 24.69 -1.8 28.8 41 -13.4 8
01:40 1007 29.74 836 24.69 -1.9 28.6 43 -12.8 8.9
01:45 1007 29.74 836 24.69 -1.5 29.3 41 -13.1 8.4
01:50 1007 29.74 836 24.69 -1.7 28.9 41 -13.5 7.7
01:55 1006 29.71 836 24.69 -1.5 29.3 40 -13.3 8
02:00 1006 29.71 836 24.69 -1.2 29.9 40 -13 8.7
02:05 1006 29.71 836 24.69 -1.3 29.7 42 -12.7 9.1
02:10 1006 29.71 836 24.69 -1.3 29.7 42 -12.5 9.4
02:15 1006 29.71 835 24.66 -1.4 29.5 41 -13 8.7
02:20 1006 29.71 835 24.66 -1.2 29.9 40 -13.1 8.4
02:25 1006 29.71 835 24.66 -0.9 30.3 40 -12.8 9
02:30 1006 29.71 835 24.66 -1 30.2 40 -12.9 8.8
02:35 1006 29.71 835 24.66 -0.9 30.4 41 -12.7 9.2
02:40 1006 29.71 835 24.66 -1.4 29.5 44 -12.2 10
02:45 1006 29.71 835 24.66 -1.4 29.5 46 -11.5 11.3
02:50 1006 29.71 835 24.66 -1.5 29.3 42 -12.7 9.1
02:55 1006 29.71 835 24.66 -1.4 29.5 44 -12.1 10.2
03:00 1006 29.71 835 24.66 -1.3 29.7 46 -11.6 11.1
03:05 1006 29.71 835 24.66 -1.3 29.7 45 -11.7 11
03:10 1006 29.71 835 24.66 -1.2 29.8 48 -10.9 12.4
03:15 1006 29.71 836 24.69 -1.5 29.4 48 -11 12.1
03:20 1006 29.71 836 24.69 -1.6 29.1 50 -10.6 12.9
03:25 1006 29.71 836 24.69 -1.8 28.8 50 -10.8 12.5
03:30 1007 29.74 836 24.69 -1.7 28.9 48 -11.3 11.6
03:35 1007 29.74 836 24.69 -1.7 28.9 49 -11 12.2
03:40 1007 29.74 836 24.69 -2.5 27.5 52 -11.1 11.9
03:45 1007 29.74 836 24.69 -3.1 26.4 56 -10.8 12.6
03:50 1007 29.74 836 24.69 -3.4 25.9 59 -10.2 13.6
03:55 1007 29.74 836 24.69 -3.5 25.7 62 -9.9 14.2
04:00 1007 29.74 836 24.69 -3.4 25.9 64 -9.4 15.1
04:05 1007 29.74 836 24.69 -3.2 26.2 64 -9.1 15.6
04:10 1007 29.74 836 24.69 -3.3 26.1 67 -8.5 16.8
04:15 1007 29.74 836 24.69 -3.3 26.1 75 -7.1 19.2
04:20 1007 29.74 837 24.72 -3.7 25.3 81 -6.5 20.2
04:25 1007 29.74 837 24.72 -4.1 24.6 84 -6.5 20.4
04:30 1007 29.74 837 24.72 -4.3 24.2 85 -6.4 20.4
04:35 1007 29.74 837 24.72 -4.4 24 87 -6.3 20.6
04:40 1008 29.77 837 24.72 -4.6 23.8 87 -6.4 20.4
04:45 1008 29.77 837 24.72 -4.7 23.6 87 -6.4 20.4
04:50 1008 29.77 837 24.72 -4.7 23.6 88 -6.4 20.5
04:55 1008 29.77 837 24.72 -4.5 23.8 87 -6.3 20.6
05:00 1008 29.77 837 24.72 -4.6 23.7 87 -6.5 20.3
05:05 1008 29.77 837 24.72 -4.6 23.7 88 -6.4 20.6
05:10 1008 29.77 837 24.72 -4.7 23.5 89 -6.3 20.7
05:15 1008 29.77 837 24.72 -4.8 23.3 91 -6.1 21
05:20 1008 29.77 837 24.72 -4.9 23.1 92 -6.1 21
05:25 1008 29.77 837 24.72 -5.1 22.8 93 -6 21.1
05:30 1008 29.77 837 24.72 -5.2 22.7 93 -6.2 20.8
05:35 1008 29.77 837 24.72 -5.3 22.4 93 -6.3 20.7
05:40 1008 29.77 837 24.72 -5.4 22.3 94 -6.2 20.8
05:45 1008 29.77 837 24.72 -5.4 22.3 94 -6.2 20.9
05:50 1008 29.77 837 24.72 -5.4 22.3 94 -6.2 20.9
05:55 1008 29.77 837 24.72 -5.4 22.3 94 -6.2 20.9
06:00 1008 29.77 837 24.72 -5.4 22.3 94 -6.2 20.9
06:05 1008 29.77 838 24.75 -5.4 22.3 94 -6.2 20.8
06:10 1008 29.77 838 24.75 -5.4 22.2 94 -6.2 20.8
06:15 1008 29.77 838 24.75 -5.4 22.3 94 -6.2 20.8
06:20 1009 29.8 838 24.75 -5.4 22.2 94 -6.3 20.7
06:25 1009 29.8 838 24.75 -5.4 22.2 94 -6.2 20.8
06:30 1009 29.8 838 24.75 -5.4 22.2 94 -6.3 20.7
06:35 1009 29.8 838 24.75 -5.4 22.3 94 -6.3 20.7
06:40 1009 29.8 838 24.75 -5.4 22.2 94 -6.3 20.7
06:45 1009 29.8 838 24.75 -5.5 22.1 94 -6.3 20.6
06:50 1009 29.8 838 24.75 -5.6 21.9 94 -6.4 20.4
06:55 1009 29.8 838 24.75 -5.7 21.8 95 -6.4 20.5
07:00 1009 29.8 838 24.75 -5.6 21.9 94 -6.4 20.4
07:05 1009 29.8 838 24.75 -5.6 21.9 94 -6.5 20.3
07:10 1009 29.8 838 24.75 -5.7 21.7 94 -6.5 20.3
07:15 1009 29.8 838 24.75 -5.8 21.6 94 -6.6 20.1
07:20 1009 29.8 838 24.75 -5.7 21.7 95 -6.4 20.4
07:25 1009 29.8 838 24.75 -5.6 22 94 -6.4 20.5
07:30 1009 29.8 838 24.75 -5.6 21.9 94 -6.5 20.3
07:35 1009 29.8 838 24.75 -5.7 21.7 94 -6.5 20.3
07:40 1009 29.8 838 24.75 -5.6 21.9 94 -6.4 20.4
07:45 1009 29.8 838 24.75 -5.5 22.1 94 -6.3 20.6
07:50 1009 29.8 838 24.75 -5.4 22.4 94 -6.2 20.8
07:55 1009 29.8 838 24.75 -5.3 22.5 93 -6.2 20.9
08:00 1009 29.8 838 24.75 -5.2 22.6 93 -6.2 20.9
08:05 1009 29.8 838 24.75 -5.2 22.6 92 -6.3 20.7
08:10 1009 29.8 838 24.75 -5.2 22.6 92 -6.4 20.6
08:15 1009 29.8 838 24.75 -5.2 22.7 91 -6.4 20.5
08:20 1009 29.8 838 24.75 -5.5 22.1 92 -6.5 20.2
08:25 1009 29.8 838 24.75 -5.7 21.8 92 -6.8 19.7
08:30 1009 29.8 838 24.75 -5.9 21.4 93 -6.9 19.6
08:35 1009 29.8 839 24.78 -6.1 21 93 -7.1 19.2
08:40 1009 29.8 839 24.78 -6.2 20.8 93 -7.1 19.2
08:45 1009 29.8 839 24.78 -6.1 21.1 92 -7.1 19.1
08:50 1009 29.8 839 24.78 -6 21.1 92 -7.1 19.2
08:55 1009 29.8 839 24.78 -6.1 21 92 -7.2 19
09:00 1009 29.8 839 24.78 -6.1 21 92 -7.3 18.9
09:05 1009 29.8 839 24.78 -6 21.2 91 -7.3 18.9
09:10 1009 29.8 839 24.78 -5.8 21.5 89 -7.4 18.8
09:15 1010 29.83 839 24.78 -6 21.2 92 -7.1 19.1
09:20 1010 29.83 839 24.78 -5.9 21.4 91 -7.1 19.2
09:25 1010 29.83 839 24.78 -5.9 21.4 90 -7.3 18.9
09:30 1010 29.83 839 24.78 -5.9 21.3 93 -6.9 19.6
09:35 1010 29.83 839 24.78 -5.6 22 89 -7 19.3
09:40 1010 29.83 839 24.78 -5.4 22.3 90 -6.7 19.9
09:45 1010 29.83 839 24.78 -5.1 22.7 90 -6.5 20.3
09:50 1010 29.83 839 24.78 -4.7 23.6 88 -6.4 20.5
09:55 1010 29.83 839 24.78 -4.6 23.7 87 -6.5 20.3
10:00 1010 29.83 839 24.78 -4.4 24.2 86 -6.3 20.6
10:05 1010 29.83 839 24.78 -4.1 24.7 83 -6.6 20.1
10:10 1010 29.83 839 24.78 -3.6 25.5 86 -5.6 22
10:15 1010 29.83 839 24.78 -3.3 26 82 -6 21.1
10:20 1010 29.83 839 24.78 -3.2 26.2 77 -6.7 20
10:25 1010 29.83 839 24.78 -3.4 25.8 78 -6.7 19.9
10:30 1010 29.83 839 24.78 -2.9 26.8 75 -6.7 20
10:35 1010 29.83 839 24.78 -2.9 26.7 76 -6.7 20
10:40 1010 29.83 839 24.78 -2.9 26.8 70 -7.6 18.4
10:45 1010 29.83 839 24.78 -3.1 26.5 74 -7 19.3
10:50 1010 29.83 839 24.78 -3.2 26.2 76 -6.9 19.5
10:55 1010 29.83 839 24.78 -3.9 25.1 77 -7.3 18.9
11:00 1010 29.83 839 24.78 -4.6 23.7 80 -7.5 18.5
11:05 1010 29.83 839 24.78 -5 23 83 -7.5 18.5
11:10 1010 29.83 839 24.78 -5 23 80 -7.9 17.8
11:15 1010 29.83 839 24.78 -4.6 23.7 79 -7.7 18.1
11:20 1010 29.83 839 24.78 -4.7 23.5 82 -7.4 18.7
11:25 1010 29.83 839 24.78 -5 23 83 -7.5 18.5
11:30 1010 29.83 839 24.78 -4.9 23.2 82 -7.5 18.5
11:35 1010 29.83 839 24.78 -4.9 23.1 82 -7.5 18.5
11:40 1010 29.83 839 24.78 -4.9 23.1 84 -7.3 18.9
11:45 1010 29.83 839 24.78 -4.5 23.9 81 -7.3 18.9
11:50 1010 29.83 839 24.78 -3.5 25.7 77 -7 19.4
11:55 1010 29.83 839 24.78 -2.6 27.3 72 -7 19.5
12:00 1010 29.83 839 24.78 -2.8 27 73 -7 19.4
12:05 1010 29.83 839 24.78 -3.7 25.4 78 -6.9 19.5
12:10 1010 29.83 839 24.78 -4.4 24.1 81 -7.1 19.2
12:15 1010 29.83 839 24.78 -5 23 83 -7.4 18.6
12:20 1010 29.83 839 24.78 -5.7 21.8 85 -7.8 18
12:25 1010 29.83 839 24.78 -5.6 22 84 -7.9 17.7
12:30 1010 29.83 839 24.78 -5.6 22 84 -7.9 17.9
12:35 1010 29.83 839 24.78 -5.7 21.8 83 -8.1 17.4
12:40 1010 29.83 839 24.78 -5.4 22.3 81 -8.1 17.4
12:45 1010 29.83 839 24.78 -5.3 22.4 81 -8.2 17.3
12:50 1010 29.83 839 24.78 -5.4 22.2 81 -8.1 17.4
12:55 1010 29.83 839 24.78 -5.5 22.1 82 -8.2 17.3
13:00 1010 29.83 839 24.78 -5.5 22.1 79 -8.6 16.6
13:05 1010 29.83 839 24.78 -5.4 22.3 79 -8.4 16.8
13:10 1010 29.83 839 24.78 -5.3 22.4 80 -8.3 17.1
13:15 1010 29.83 839 24.78 -5.3 22.4 76 -8.9 15.9
13:20 1010 29.83 839 24.78 -5.3 22.5 77 -8.8 16.2
13:25 1010 29.83 839 24.78 -5.2 22.7 75 -8.9 15.9
13:30 1010 29.83 839 24.78 -5.4 22.2 75 -9.2 15.5
13:35 1010 29.83 839 24.78 -5.5 22 75 -9.2 15.4
13:40 1010 29.83 839 24.78 -5.2 22.7 72 -9.4 15
13:45 1010 29.83 839 24.78 -4.9 23.2 71 -9.4 15.1
13:50 1009 29.8 839 24.78 -4.8 23.3 69 -9.7 14.5
13:55 1009 29.8 839 24.78 -5.2 22.6 75 -9.1 15.7
14:00 1009 29.8 839 24.78 -5.6 22 75 -9.2 15.4
14:05 1009 29.8 839 24.78 -5.2 22.6 70 -9.8 14.3
14:10 1009 29.8 839 24.78 -5.3 22.4 73 -9.4 15.1
14:15 1009 29.8 838 24.75 -5.1 22.9 69 -9.8 14.3
14:20 1009 29.8 839 24.78 -5.3 22.5 67 -10.5 13.1
14:25 1009 29.8 838 24.75 -5 23 64 -10.9 12.4
14:30 1009 29.8 838 24.75 -4.8 23.4 63 -10.8 12.6
14:35 1009 29.8 838 24.75 -4.8 23.4 65 -10.5 13.1
14:40 1009 29.8 838 24.75 -4.8 23.4 63 -10.7 12.7
14:45 1009 29.8 838 24.75 -4.6 23.6 63 -10.7 12.7
14:50 1009 29.8 838 24.75 -4.8 23.3 63 -10.9 12.4
14:55 1009 29.8 839 24.78 -4.9 23.3 60 -11.4 11.4
15:00 1009 29.8 839 24.78 -4.8 23.3 64 -10.7 12.8
15:05 1009 29.8 839 24.78 -5 23 62 -11.2 11.8
15:10 1009 29.8 839 24.78 -4.9 23.1 64 -10.8 12.6
15:15 1009 29.8 839 24.78 -4.8 23.3 61 -11.3 11.6
15:20 1009 29.8 839 24.78 -4.5 23.8 59 -11.5 11.4
15:25 1009 29.8 839 24.78 -4.7 23.6 59 -11.6 11.1
15:30 1010 29.83 839 24.78 -4.7 23.5 58 -11.9 10.7
15:35 1010 29.83 839 24.78 -4.7 23.5 58 -11.8 10.8
15:40 1010 29.83 839 24.78 -4.5 23.9 58 -11.5 11.3
15:45 1009 29.8 839 24.78 -4.3 24.2 58 -11.4 11.5
15:50 1010 29.83 839 24.78 -4 24.8 57 -11.3 11.6
15:55 1010 29.83 839 24.78 -3.8 25.1 55 -11.6 11.2
16:00 1010 29.83 839 24.78 -4.2 24.4 58 -11.3 11.7
16:05 1010 29.83 839 24.78 -4.5 23.9 59 -11.3 11.6
16:10 1010 29.83 839 24.78 -4.4 24.2 60 -11.1 12.1
16:15 1010 29.83 839 24.78 -4.4 24 60 -11 12.2
16:20 1010 29.83 839 24.78 -4.2 24.4 60 -10.8 12.5
16:25 1010 29.83 839 24.78 -4.2 24.4 59 -11.1 12
16:30 1010 29.83 839 24.78 -4.2 24.4 71 -8.7 16.3
16:35 1010 29.83 839 24.78 -4.1 24.6 71 -8.6 16.5
16:40 1010 29.83 839 24.78 -4.7 23.5 76 -8.4 16.9
16:45 1010 29.83 839 24.78 -4.9 23.1 73 -9 15.8
16:50 1010 29.83 839 24.78 -4.7 23.6 73 -8.9 16
16:55 1010 29.83 839 24.78 -4.7 23.5 74 -8.7 16.3
17:00 1010 29.83 839 24.78 -4.9 23.2 72 -9.1 15.6
17:05 1010 29.83 839 24.78 -5.1 22.9 73 -9.2 15.5
17:10 1010 29.83 839 24.78 -5.3 22.4 74 -9.2 15.4
17:15 1010 29.83 839 24.78 -5.4 22.3 75 -9.2 15.4
17:20 1010 29.83 839 24.78 -5.8 21.5 76 -9.3 15.2
17:25 1010 29.83 839 24.78 -6.2 20.8 77 -9.6 14.6
17:30 1010 29.83 840 24.81 -6.1 20.9 75 -9.9 14.2
17:35 1010 29.83 840 24.81 -6.1 21.1 74 -10 14
17:40 1011 29.85 840 24.81 -6 21.3 72 -10.2 13.6
17:45 1011 29.85 840 24.81 -6.3 20.6 74 -10.2 13.6
17:50 1011 29.85 840 24.81 -6.6 20.1 75 -10.3 13.4
17:55 1011 29.85 840 24.81 -7 19.4 77 -10.3 13.4
18:00 1011 29.85 840 24.81 -7.1 19.2 77 -10.4 13.3
18:05 1011 29.85 840 24.81 -7.2 19 77 -10.5 13
18:10 1011 29.85 840 24.81 -7.6 18.4 77 -10.9 12.4
18:15 1011 29.85 840 24.81 -7.9 17.7 79 -11 12.3
18:20 1011 29.85 840 24.81 -7.9 17.7 78 -11.1 12
18:25 1011 29.85 840 24.81 -8 17.6 80 -10.8 12.5
18:30 1011 29.85 840 24.81 -8 17.6 79 -11 12.2
18:35 1011 29.85 840 24.81 -7.9 17.7 79 -10.9 12.4
18:40 1011 29.85 841 24.83 -8.1 17.5 79 -11.1 12
18:45 1011 29.85 841 24.83 -8.2 17.2 80 -11 12.2
18:50 1012 29.88 841 24.83 -8.3 17.1 80 -11.1 12
18:55 1012 29.88 841 24.83 -8.5 16.8 80 -11.4 11.5
19:00 1012 29.88 841 24.83 -8.6 16.5 80 -11.4 11.5
19:05 1012 29.88 841 24.83 -8.7 16.4 79 -11.6 11.1
19:10 1012 29.88 841 24.83 -8.9 16 80 -11.7 10.9
19:15 1012 29.88 841 24.83 -9 15.9 81 -11.6 11.1
19:20 1012 29.88 841 24.83 -8.9 16 82 -11.4 11.5
19:25 1012 29.88 841 24.83 -9.1 15.5 83 -11.5 11.3
19:30 1012 29.88 841 24.83 -9.5 14.8 84 -11.8 10.8
19:35 1012 29.88 842 24.86 -9.5 14.9 83 -11.9 10.5
19:40 1012 29.88 842 24.86 -9.6 14.6 83 -12 10.3
19:45 1012 29.88 842 24.86 -9.8 14.3 85 -11.9 10.5
19:50 1013 29.91 842 24.86 -10.1 13.9 86 -12 10.4
19:55 1013 29.91 842 24.86 -10.4 13.3 88 -11.9 10.5
20:00 1013 29.91 842 24.86 -10.4 13.4 87 -12.1 10.2
20:05 1013 29.91 842 24.86 -10.3 13.4 88 -12 10.4
20:10 1013 29.91 842 24.86 -10.3 13.4 86 -12.3 9.9
20:15 1013 29.91 842 24.86 -10.3 13.4 85 -12.3 9.8
20:20 1013 29.91 842 24.86 -10.4 13.4 85 -12.4 9.7
20:25 1013 29.91 842 24.86 -10.7 12.8 87 -12.4 9.6
20:30 1013 29.91 842 24.86 -10.6 12.9 87 -12.4 9.6
20:35 1013 29.91 842 24.86 -10.5 13 86 -12.5 9.6
20:40 1013 29.91 842 24.86 -10.6 13 85 -12.6 9.3
20:45 1013 29.91 842 24.86 -10.8 12.6 87 -12.6 9.4
20:50 1013 29.91 842 24.86 -10.7 12.8 86 -12.5 9.4
20:55 1013 29.91 842 24.86 -10.7 12.7 86 -12.7 9.1
21:00 1013 29.91 842 24.86 -11.3 11.8 87 -13 8.6
21:05 1013 29.91 842 24.86 -11.6 11.1 87 -13.3 8
21:10 1013 29.91 842 24.86 -11.7 10.9 88 -13.3 8.1
21:15 1013 29.91 842 24.86 -11.7 11 88 -13.3 8
21:20 1013 29.91 842 24.86 -12 10.5 88 -13.5 7.7
21:25 1013 29.91 843 24.89 -12.1 10.2 89 -13.6 7.5
21:30 1013 29.91 843 24.89 -11.9 10.5 86 -13.8 7.2
21:35 1013 29.91 843 24.89 -12.2 10.1 86 -14.1 6.6
21:40 1013 29.91 843 24.89 -12.4 9.8 86 -14.2 6.4
21:45 1013 29.91 843 24.89 -12.2 10 86 -14.2 6.5
21:50 1013 29.91 843 24.89 -11.9 10.5 85 -14 6.7
21:55 1014 29.94 843 24.89 -11.9 10.6 84 -14.1 6.7
22:00 1014 29.94 843 24.89 -12 10.4 84 -14.1 6.6
22:05 1014 29.94 843 24.89 -12.3 9.9 85 -14.2 6.4
22:10 1014 29.94 843 24.89 -12.1 10.3 84 -14.2 6.5
22:15 1014 29.94 843 24.89 -12.1 10.2 85 -14.2 6.5
22:20 1014 29.94 843 24.89 -12.1 10.3 85 -14.1 6.6
22:25 1014 29.94 843 24.89 -12.1 10.2 84 -14.3 6.3
22:30 1014 29.94 843 24.89 -12.1 10.3 81 -14.8 5.4
22:35 1014 29.94 843 24.89 -11.9 10.5 76 -15.3 4.4
22:40 1014 29.94 843 24.89 -11.7 10.9 77 -15.1 4.9
22:45 1014 29.94 843 24.89 -11.9 10.6 80 -14.6 5.7
22:50 1014 29.94 843 24.89 -12.4 9.7 83 -14.8 5.4
22:55 1014 29.94 843 24.89 -12.7 9.2 81 -15.2 4.6
23:00 1014 29.94 843 24.89 -12.5 9.4 79 -15.4 4.2
23:05 1014 29.94 843 24.89 -12.2 10 80 -14.9 5.1
23:10 1014 29.94 843 24.89 -12.5 9.5 82 -15 5
23:15 1014 29.94 843 24.89 -13 8.7 83 -15.2 4.6
23:20 1014 29.94 843 24.89 -13 8.7 78 -16 3.3
23:25 1014 29.94 843 24.89 -12.3 9.9 75 -15.9 3.5
23:30 1013 29.91 843 24.89 -12.1 10.2 74 -15.9 3.4
23:35 1013 29.91 843 24.89 -12.2 10.1 74 -15.9 3.4
23:40 1013 29.91 843 24.89 -12.2 10 76 -15.7 3.8
23:45 1013 29.91 843 24.89 -12.3 9.9 74 -16 3.2
23:50 1013 29.91 843 24.89 -12.4 9.8 74 -16.1 3
23:55 1013 29.91 843 24.89 -12.4 9.6 74 -16.1 3
24:00 1013 29.91 843 24.89 -12.5 9.5 74 -16.2 2.8